sensor_id;sensor_type;location;lat;lon;timestamp;P1;durP1;ratioP1;P2;durP2;ratioP2
26512;SDS011;14186;53.822;10.152;2022-10-16T00:02:28;14.55;;;7.93;;
26512;SDS011;14186;53.822;10.152;2022-10-16T00:07:29;13.10;;;7.70;;
26512;SDS011;14186;53.822;10.152;2022-10-16T00:12:29;12.98;;;7.53;;
26512;SDS011;14186;53.822;10.152;2022-10-16T00:17:30;17.73;;;8.05;;
26512;SDS011;14186;53.822;10.152;2022-10-16T00:22:31;15.02;;;7.97;;
26512;SDS011;14186;53.822;10.152;2022-10-16T00:27:31;15.20;;;7.43;;
26512;SDS011;14186;53.822;10.152;2022-10-16T00:32:33;15.27;;;7.18;;
26512;SDS011;14186;53.822;10.152;2022-10-16T00:37:33;13.38;;;7.43;;
26512;SDS011;14186;53.822;10.152;2022-10-16T00:42:33;12.27;;;7.05;;
26512;SDS011;14186;53.822;10.152;2022-10-16T00:47:36;15.10;;;7.75;;
26512;SDS011;14186;53.822;10.152;2022-10-16T00:52:36;13.55;;;7.82;;
26512;SDS011;14186;53.822;10.152;2022-10-16T00:57:39;12.02;;;7.55;;
26512;SDS011;14186;53.822;10.152;2022-10-16T01:02:41;13.27;;;6.82;;
26512;SDS011;14186;53.822;10.152;2022-10-16T01:07:43;11.98;;;7.80;;
26512;SDS011;14186;53.822;10.152;2022-10-16T01:12:57;12.63;;;6.35;;
26512;SDS011;14186;53.822;10.152;2022-10-16T01:18:00;13.80;;;6.60;;
26512;SDS011;14186;53.822;10.152;2022-10-16T01:23:05;13.10;;;5.20;;
26512;SDS011;14186;53.822;10.152;2022-10-16T01:28:09;7.82;;;4.13;;
26512;SDS011;14186;53.822;10.152;2022-10-16T01:33:12;8.32;;;4.18;;
26512;SDS011;14186;53.822;10.152;2022-10-16T01:38:15;9.50;;;3.83;;
26512;SDS011;14186;53.822;10.152;2022-10-16T01:43:19;6.97;;;3.65;;
26512;SDS011;14186;53.822;10.152;2022-10-16T01:48:20;8.82;;;3.28;;
26512;SDS011;14186;53.822;10.152;2022-10-16T01:53:21;6.80;;;3.13;;
26512;SDS011;14186;53.822;10.152;2022-10-16T01:58:23;7.43;;;2.85;;
26512;SDS011;14186;53.822;10.152;2022-10-16T02:03:25;6.82;;;2.95;;
26512;SDS011;14186;53.822;10.152;2022-10-16T02:08:26;6.07;;;2.70;;
26512;SDS011;14186;53.822;10.152;2022-10-16T02:13:31;19.05;;;4.70;;
26512;SDS011;14186;53.822;10.152;2022-10-16T02:18:32;7.15;;;2.25;;
26512;SDS011;14186;53.822;10.152;2022-10-16T02:23:35;4.77;;;2.33;;
26512;SDS011;14186;53.822;10.152;2022-10-16T02:28:38;5.10;;;2.33;;
26512;SDS011;14186;53.822;10.152;2022-10-16T02:33:40;5.23;;;2.50;;
26512;SDS011;14186;53.822;10.152;2022-10-16T02:38:42;5.78;;;2.03;;
26512;SDS011;14186;53.822;10.152;2022-10-16T02:43:43;5.03;;;2.00;;
26512;SDS011;14186;53.822;10.152;2022-10-16T02:48:44;6.07;;;1.80;;
26512;SDS011;14186;53.822;10.152;2022-10-16T02:58:47;7.03;;;2.35;;
26512;SDS011;14186;53.822;10.152;2022-10-16T03:03:48;8.73;;;2.00;;
26512;SDS011;14186;53.822;10.152;2022-10-16T03:08:48;5.23;;;2.00;;
26512;SDS011;14186;53.822;10.152;2022-10-16T03:13:49;4.63;;;1.55;;
26512;SDS011;14186;53.822;10.152;2022-10-16T03:18:50;3.60;;;1.73;;
26512;SDS011;14186;53.822;10.152;2022-10-16T03:23:50;6.67;;;1.77;;
26512;SDS011;14186;53.822;10.152;2022-10-16T03:28:52;8.38;;;2.00;;
26512;SDS011;14186;53.822;10.152;2022-10-16T03:33:52;6.53;;;1.48;;
26512;SDS011;14186;53.822;10.152;2022-10-16T03:38:52;4.93;;;1.67;;
26512;SDS011;14186;53.822;10.152;2022-10-16T03:43:54;5.03;;;1.70;;
26512;SDS011;14186;53.822;10.152;2022-10-16T03:48:54;4.97;;;1.67;;
26512;SDS011;14186;53.822;10.152;2022-10-16T03:53:54;5.43;;;2.75;;
26512;SDS011;14186;53.822;10.152;2022-10-16T03:58:55;8.00;;;2.13;;
26512;SDS011;14186;53.822;10.152;2022-10-16T04:03:56;4.93;;;1.30;;
26512;SDS011;14186;53.822;10.152;2022-10-16T04:08:56;7.57;;;2.13;;
26512;SDS011;14186;53.822;10.152;2022-10-16T04:13:58;5.60;;;2.03;;
26512;SDS011;14186;53.822;10.152;2022-10-16T04:18:59;5.88;;;1.58;;
26512;SDS011;14186;53.822;10.152;2022-10-16T04:23:59;5.20;;;1.75;;
26512;SDS011;14186;53.822;10.152;2022-10-16T04:29:01;5.72;;;1.90;;
26512;SDS011;14186;53.822;10.152;2022-10-16T04:34:01;3.70;;;1.30;;
26512;SDS011;14186;53.822;10.152;2022-10-16T04:39:01;4.10;;;1.45;;
26512;SDS011;14186;53.822;10.152;2022-10-16T04:44:03;4.70;;;1.33;;
26512;SDS011;14186;53.822;10.152;2022-10-16T04:49:03;6.18;;;1.92;;
26512;SDS011;14186;53.822;10.152;2022-10-16T04:54:03;3.40;;;1.10;;
26512;SDS011;14186;53.822;10.152;2022-10-16T04:59:05;6.78;;;1.50;;
26512;SDS011;14186;53.822;10.152;2022-10-16T05:04:05;8.02;;;1.80;;
26512;SDS011;14186;53.822;10.152;2022-10-16T05:09:05;4.45;;;1.13;;
26512;SDS011;14186;53.822;10.152;2022-10-16T05:14:07;4.10;;;1.27;;
26512;SDS011;14186;53.822;10.152;2022-10-16T05:19:07;2.63;;;1.20;;
26512;SDS011;14186;53.822;10.152;2022-10-16T05:24:08;4.17;;;1.50;;
26512;SDS011;14186;53.822;10.152;2022-10-16T05:29:09;2.55;;;1.10;;
26512;SDS011;14186;53.822;10.152;2022-10-16T05:34:10;4.50;;;1.40;;
26512;SDS011;14186;53.822;10.152;2022-10-16T05:39:10;6.17;;;1.40;;
26512;SDS011;14186;53.822;10.152;2022-10-16T05:44:12;5.07;;;1.75;;
26512;SDS011;14186;53.822;10.152;2022-10-16T05:49:12;4.90;;;1.35;;
26512;SDS011;14186;53.822;10.152;2022-10-16T05:54:12;4.95;;;1.23;;
26512;SDS011;14186;53.822;10.152;2022-10-16T05:59:14;5.18;;;1.77;;
26512;SDS011;14186;53.822;10.152;2022-10-16T06:04:15;6.45;;;2.03;;
26512;SDS011;14186;53.822;10.152;2022-10-16T06:09:15;6.15;;;2.30;;
26512;SDS011;14186;53.822;10.152;2022-10-16T06:14:17;7.93;;;2.25;;
26512;SDS011;14186;53.822;10.152;2022-10-16T06:19:17;5.35;;;2.60;;
26512;SDS011;14186;53.822;10.152;2022-10-16T06:24:17;7.38;;;2.05;;
26512;SDS011;14186;53.822;10.152;2022-10-16T06:29:19;5.72;;;2.40;;
26512;SDS011;14186;53.822;10.152;2022-10-16T06:34:19;6.85;;;2.55;;
26512;SDS011;14186;53.822;10.152;2022-10-16T06:39:19;4.93;;;2.40;;
26512;SDS011;14186;53.822;10.152;2022-10-16T06:44:21;8.07;;;2.58;;
26512;SDS011;14186;53.822;10.152;2022-10-16T06:49:21;12.18;;;3.25;;
26512;SDS011;14186;53.822;10.152;2022-10-16T06:54:21;7.13;;;2.47;;
26512;SDS011;14186;53.822;10.152;2022-10-16T06:59:23;8.50;;;2.20;;
26512;SDS011;14186;53.822;10.152;2022-10-16T07:04:23;7.55;;;2.10;;
26512;SDS011;14186;53.822;10.152;2022-10-16T07:09:24;9.00;;;1.90;;
26512;SDS011;14186;53.822;10.152;2022-10-16T07:14:25;4.40;;;1.70;;
26512;SDS011;14186;53.822;10.152;2022-10-16T07:19:26;4.28;;;1.23;;
26512;SDS011;14186;53.822;10.152;2022-10-16T07:24:26;4.50;;;1.33;;
26512;SDS011;14186;53.822;10.152;2022-10-16T07:29:27;5.90;;;1.98;;
26512;SDS011;14186;53.822;10.152;2022-10-16T07:34:28;5.32;;;1.70;;
26512;SDS011;14186;53.822;10.152;2022-10-16T07:39:28;7.28;;;2.13;;
26512;SDS011;14186;53.822;10.152;2022-10-16T07:44:30;5.50;;;1.63;;
26512;SDS011;14186;53.822;10.152;2022-10-16T07:49:30;6.85;;;1.80;;
26512;SDS011;14186;53.822;10.152;2022-10-16T07:54:30;5.97;;;2.17;;
26512;SDS011;14186;53.822;10.152;2022-10-16T07:59:32;6.22;;;2.40;;
26512;SDS011;14186;53.822;10.152;2022-10-16T08:04:32;4.60;;;1.77;;
26512;SDS011;14186;53.822;10.152;2022-10-16T08:09:32;5.25;;;1.95;;
26512;SDS011;14186;53.822;10.152;2022-10-16T08:14:34;7.07;;;2.10;;
26512;SDS011;14186;53.822;10.152;2022-10-16T08:19:34;6.32;;;2.38;;
26512;SDS011;14186;53.822;10.152;2022-10-16T08:24:34;5.53;;;2.67;;
26512;SDS011;14186;53.822;10.152;2022-10-16T08:29:36;3.72;;;2.30;;
26512;SDS011;14186;53.822;10.152;2022-10-16T08:34:36;7.78;;;3.10;;
26512;SDS011;14186;53.822;10.152;2022-10-16T08:39:38;16.33;;;3.08;;
26512;SDS011;14186;53.822;10.152;2022-10-16T08:49:59;4.20;;;2.33;;
26512;SDS011;14186;53.822;10.152;2022-10-16T08:54:59;7.25;;;2.50;;
26512;SDS011;14186;53.822;10.152;2022-10-16T09:00:00;8.18;;;2.33;;
26512;SDS011;14186;53.822;10.152;2022-10-16T09:05:29;4.20;;;2.03;;
26512;SDS011;14186;53.822;10.152;2022-10-16T09:10:38;5.78;;;2.40;;
26512;SDS011;14186;53.822;10.152;2022-10-16T09:15:39;5.40;;;2.10;;
26512;SDS011;14186;53.822;10.152;2022-10-16T09:20:49;6.45;;;2.20;;
26512;SDS011;14186;53.822;10.152;2022-10-16T09:25:50;3.75;;;1.95;;
26512;SDS011;14186;53.822;10.152;2022-10-16T09:30:51;9.00;;;2.10;;
26512;SDS011;14186;53.822;10.152;2022-10-16T09:35:53;7.38;;;2.08;;
26512;SDS011;14186;53.822;10.152;2022-10-16T09:40:53;10.05;;;2.63;;
26512;SDS011;14186;53.822;10.152;2022-10-16T09:45:54;5.63;;;1.77;;
26512;SDS011;14186;53.822;10.152;2022-10-16T09:50:57;7.40;;;1.67;;
26512;SDS011;14186;53.822;10.152;2022-10-16T09:55:57;3.63;;;1.30;;
26512;SDS011;14186;53.822;10.152;2022-10-16T10:00:58;4.23;;;1.57;;
26512;SDS011;14186;53.822;10.152;2022-10-16T10:05:59;5.18;;;1.17;;
26512;SDS011;14186;53.822;10.152;2022-10-16T10:11:00;4.18;;;0.95;;
26512;SDS011;14186;53.822;10.152;2022-10-16T10:16:00;4.43;;;1.23;;
26512;SDS011;14186;53.822;10.152;2022-10-16T10:21:02;4.05;;;1.85;;
26512;SDS011;14186;53.822;10.152;2022-10-16T10:26:03;5.03;;;0.82;;
26512;SDS011;14186;53.822;10.152;2022-10-16T10:31:07;6.07;;;0.95;;
26512;SDS011;14186;53.822;10.152;2022-10-16T10:41:17;7.63;;;1.02;;
26512;SDS011;14186;53.822;10.152;2022-10-16T10:46:21;7.07;;;1.38;;
26512;SDS011;14186;53.822;10.152;2022-10-16T10:51:25;3.95;;;0.90;;
26512;SDS011;14186;53.822;10.152;2022-10-16T10:56:37;4.87;;;0.80;;
26512;SDS011;14186;53.822;10.152;2022-10-16T11:01:41;6.80;;;0.80;;
26512;SDS011;14186;53.822;10.152;2022-10-16T11:06:48;10.35;;;1.48;;
26512;SDS011;14186;53.822;10.152;2022-10-16T11:11:51;5.50;;;1.35;;
26512;SDS011;14186;53.822;10.152;2022-10-16T11:16:54;2.92;;;0.80;;
26512;SDS011;14186;53.822;10.152;2022-10-16T11:22:00;3.13;;;0.68;;
26512;SDS011;14186;53.822;10.152;2022-10-16T11:32:04;5.97;;;1.45;;
26512;SDS011;14186;53.822;10.152;2022-10-16T11:37:08;3.42;;;0.60;;
26512;SDS011;14186;53.822;10.152;2022-10-16T11:42:10;5.32;;;0.90;;
26512;SDS011;14186;53.822;10.152;2022-10-16T11:47:16;3.60;;;0.90;;
26512;SDS011;14186;53.822;10.152;2022-10-16T11:52:20;4.70;;;0.95;;
26512;SDS011;14186;53.822;10.152;2022-10-16T11:57:23;5.05;;;1.35;;
26512;SDS011;14186;53.822;10.152;2022-10-16T12:07:45;5.55;;;0.70;;
26512;SDS011;14186;53.822;10.152;2022-10-16T12:12:48;3.42;;;0.77;;
26512;SDS011;14186;53.822;10.152;2022-10-16T12:17:49;3.30;;;0.90;;
26512;SDS011;14186;53.822;10.152;2022-10-16T12:22:52;3.53;;;0.90;;
26512;SDS011;14186;53.822;10.152;2022-10-16T12:27:56;4.00;;;0.70;;
26512;SDS011;14186;53.822;10.152;2022-10-16T12:32:57;5.17;;;0.93;;
26512;SDS011;14186;53.822;10.152;2022-10-16T12:38:06;9.77;;;1.70;;
26512;SDS011;14186;53.822;10.152;2022-10-16T12:43:24;4.97;;;1.23;;
26512;SDS011;14186;53.822;10.152;2022-10-16T12:48:24;7.60;;;0.82;;
26512;SDS011;14186;53.822;10.152;2022-10-16T12:53:26;7.35;;;1.23;;
26512;SDS011;14186;53.822;10.152;2022-10-16T13:03:58;5.38;;;1.33;;
26512;SDS011;14186;53.822;10.152;2022-10-16T13:09:13;8.07;;;0.73;;
26512;SDS011;14186;53.822;10.152;2022-10-16T13:24:39;5.30;;;0.75;;
26512;SDS011;14186;53.822;10.152;2022-10-16T13:29:42;2.97;;;0.50;;
26512;SDS011;14186;53.822;10.152;2022-10-16T13:34:43;4.67;;;1.23;;
26512;SDS011;14186;53.822;10.152;2022-10-16T13:39:45;4.95;;;0.73;;
26512;SDS011;14186;53.822;10.152;2022-10-16T13:44:46;4.32;;;0.50;;
26512;SDS011;14186;53.822;10.152;2022-10-16T13:49:58;4.47;;;1.20;;
26512;SDS011;14186;53.822;10.152;2022-10-16T13:54:59;8.95;;;1.10;;
26512;SDS011;14186;53.822;10.152;2022-10-16T14:00:00;6.07;;;1.55;;
26512;SDS011;14186;53.822;10.152;2022-10-16T14:05:00;5.33;;;1.03;;
26512;SDS011;14186;53.822;10.152;2022-10-16T14:10:03;5.45;;;0.90;;
26512;SDS011;14186;53.822;10.152;2022-10-16T14:15:05;4.22;;;1.30;;
26512;SDS011;14186;53.822;10.152;2022-10-16T14:20:06;6.68;;;1.30;;
26512;SDS011;14186;53.822;10.152;2022-10-16T14:25:22;4.57;;;0.98;;
26512;SDS011;14186;53.822;10.152;2022-10-16T14:30:23;3.13;;;0.93;;
26512;SDS011;14186;53.822;10.152;2022-10-16T14:35:28;4.47;;;0.80;;
26512;SDS011;14186;53.822;10.152;2022-10-16T14:40:30;8.07;;;1.17;;
26512;SDS011;14186;53.822;10.152;2022-10-16T14:45:32;7.32;;;1.65;;
26512;SDS011;14186;53.822;10.152;2022-10-16T14:50:33;6.93;;;1.15;;
26512;SDS011;14186;53.822;10.152;2022-10-16T14:55:37;3.40;;;0.80;;
26512;SDS011;14186;53.822;10.152;2022-10-16T15:00:37;2.83;;;0.80;;
26512;SDS011;14186;53.822;10.152;2022-10-16T15:05:38;4.45;;;1.13;;
26512;SDS011;14186;53.822;10.152;2022-10-16T15:10:40;4.88;;;0.95;;
26512;SDS011;14186;53.822;10.152;2022-10-16T15:15:42;4.22;;;1.05;;
26512;SDS011;14186;53.822;10.152;2022-10-16T15:20:42;4.88;;;1.05;;
26512;SDS011;14186;53.822;10.152;2022-10-16T15:25:44;12.65;;;1.08;;
26512;SDS011;14186;53.822;10.152;2022-10-16T15:30:45;9.38;;;1.88;;
26512;SDS011;14186;53.822;10.152;2022-10-16T15:35:46;9.57;;;2.08;;
26512;SDS011;14186;53.822;10.152;2022-10-16T15:40:48;3.50;;;0.80;;
26512;SDS011;14186;53.822;10.152;2022-10-16T15:45:52;5.65;;;0.75;;
26512;SDS011;14186;53.822;10.152;2022-10-16T15:50:58;6.55;;;0.90;;
26512;SDS011;14186;53.822;10.152;2022-10-16T15:56:01;6.53;;;2.23;;
26512;SDS011;14186;53.822;10.152;2022-10-16T16:01:02;5.55;;;1.83;;
26512;SDS011;14186;53.822;10.152;2022-10-16T16:06:06;8.50;;;1.63;;
26512;SDS011;14186;53.822;10.152;2022-10-16T16:11:08;8.70;;;1.30;;
26512;SDS011;14186;53.822;10.152;2022-10-16T16:16:10;6.25;;;0.90;;
26512;SDS011;14186;53.822;10.152;2022-10-16T16:21:11;3.47;;;0.85;;
26512;SDS011;14186;53.822;10.152;2022-10-16T16:26:14;3.47;;;0.70;;
26512;SDS011;14186;53.822;10.152;2022-10-16T16:31:14;3.90;;;1.20;;
26512;SDS011;14186;53.822;10.152;2022-10-16T16:36:15;6.65;;;1.00;;
26512;SDS011;14186;53.822;10.152;2022-10-16T16:41:17;6.85;;;1.20;;
26512;SDS011;14186;53.822;10.152;2022-10-16T16:46:18;17.42;;;6.97;;
26512;SDS011;14186;53.822;10.152;2022-10-16T16:51:18;17.77;;;6.88;;
26512;SDS011;14186;53.822;10.152;2022-10-16T16:56:20;17.42;;;8.65;;
26512;SDS011;14186;53.822;10.152;2022-10-16T17:01:21;8.30;;;3.70;;
26512;SDS011;14186;53.822;10.152;2022-10-16T17:06:22;9.18;;;2.90;;
26512;SDS011;14186;53.822;10.152;2022-10-16T17:11:25;8.13;;;2.03;;
26512;SDS011;14186;53.822;10.152;2022-10-16T17:16:26;12.77;;;2.38;;
26512;SDS011;14186;53.822;10.152;2022-10-16T17:21:27;10.32;;;1.98;;
26512;SDS011;14186;53.822;10.152;2022-10-16T17:26:29;10.07;;;1.67;;
26512;SDS011;14186;53.822;10.152;2022-10-16T17:31:29;4.63;;;1.10;;
26512;SDS011;14186;53.822;10.152;2022-10-16T17:36:31;6.20;;;2.05;;
26512;SDS011;14186;53.822;10.152;2022-10-16T17:41:33;5.15;;;1.63;;
26512;SDS011;14186;53.822;10.152;2022-10-16T17:46:34;10.07;;;2.67;;
26512;SDS011;14186;53.822;10.152;2022-10-16T17:51:34;9.35;;;2.55;;
26512;SDS011;14186;53.822;10.152;2022-10-16T17:56:36;10.23;;;2.60;;
26512;SDS011;14186;53.822;10.152;2022-10-16T18:01:37;13.73;;;3.75;;
26512;SDS011;14186;53.822;10.152;2022-10-16T18:06:38;13.88;;;4.50;;
26512;SDS011;14186;53.822;10.152;2022-10-16T18:11:40;11.80;;;3.42;;
26512;SDS011;14186;53.822;10.152;2022-10-16T18:16:40;9.02;;;2.83;;
26512;SDS011;14186;53.822;10.152;2022-10-16T18:21:41;12.82;;;3.10;;
26512;SDS011;14186;53.822;10.152;2022-10-16T18:26:42;11.77;;;3.55;;
26512;SDS011;14186;53.822;10.152;2022-10-16T18:31:43;7.28;;;2.50;;
26512;SDS011;14186;53.822;10.152;2022-10-16T18:36:43;9.13;;;2.97;;
26512;SDS011;14186;53.822;10.152;2022-10-16T18:41:45;9.15;;;2.17;;
26512;SDS011;14186;53.822;10.152;2022-10-16T18:46:45;6.78;;;2.15;;
26512;SDS011;14186;53.822;10.152;2022-10-16T18:51:45;9.45;;;3.30;;
26512;SDS011;14186;53.822;10.152;2022-10-16T18:56:47;10.20;;;2.60;;
26512;SDS011;14186;53.822;10.152;2022-10-16T19:01:47;13.45;;;3.00;;
26512;SDS011;14186;53.822;10.152;2022-10-16T19:06:49;7.60;;;2.28;;
26512;SDS011;14186;53.822;10.152;2022-10-16T19:11:50;9.27;;;2.90;;
26512;SDS011;14186;53.822;10.152;2022-10-16T19:16:51;10.65;;;2.60;;
26512;SDS011;14186;53.822;10.152;2022-10-16T19:21:51;10.25;;;3.03;;
26512;SDS011;14186;53.822;10.152;2022-10-16T19:26:52;9.55;;;2.03;;
26512;SDS011;14186;53.822;10.152;2022-10-16T19:31:53;12.73;;;3.15;;
26512;SDS011;14186;53.822;10.152;2022-10-16T19:36:53;9.80;;;2.72;;
26512;SDS011;14186;53.822;10.152;2022-10-16T19:41:55;7.10;;;2.60;;
26512;SDS011;14186;53.822;10.152;2022-10-16T19:46:55;9.07;;;3.40;;
26512;SDS011;14186;53.822;10.152;2022-10-16T19:51:56;12.20;;;2.83;;
26512;SDS011;14186;53.822;10.152;2022-10-16T19:56:58;13.38;;;3.40;;
26512;SDS011;14186;53.822;10.152;2022-10-16T20:01:58;17.60;;;4.25;;
26512;SDS011;14186;53.822;10.152;2022-10-16T20:06:58;12.95;;;4.25;;
26512;SDS011;14186;53.822;10.152;2022-10-16T20:12:00;10.15;;;2.78;;
26512;SDS011;14186;53.822;10.152;2022-10-16T20:17:00;10.70;;;4.32;;
26512;SDS011;14186;53.822;10.152;2022-10-16T20:22:01;19.45;;;7.15;;
26512;SDS011;14186;53.822;10.152;2022-10-16T20:27:02;15.63;;;5.82;;
26512;SDS011;14186;53.822;10.152;2022-10-16T20:32:03;17.33;;;5.38;;
26512;SDS011;14186;53.822;10.152;2022-10-16T20:37:03;18.23;;;4.55;;
26512;SDS011;14186;53.822;10.152;2022-10-16T20:42:04;15.07;;;4.25;;
26512;SDS011;14186;53.822;10.152;2022-10-16T20:47:05;17.00;;;3.20;;
26512;SDS011;14186;53.822;10.152;2022-10-16T20:52:05;21.17;;;3.05;;
26512;SDS011;14186;53.822;10.152;2022-10-16T20:57:06;16.35;;;3.05;;
26512;SDS011;14186;53.822;10.152;2022-10-16T21:02:08;13.60;;;2.30;;
26512;SDS011;14186;53.822;10.152;2022-10-16T21:07:09;15.52;;;2.38;;
26512;SDS011;14186;53.822;10.152;2022-10-16T21:12:10;12.45;;;2.22;;
26512;SDS011;14186;53.822;10.152;2022-10-16T21:17:10;16.63;;;3.10;;
26512;SDS011;14186;53.822;10.152;2022-10-16T21:22:11;15.68;;;3.95;;
26512;SDS011;14186;53.822;10.152;2022-10-16T21:27:12;9.63;;;3.22;;
26512;SDS011;14186;53.822;10.152;2022-10-16T21:32:13;17.88;;;2.80;;
26512;SDS011;14186;53.822;10.152;2022-10-16T21:37:13;14.67;;;2.57;;
26512;SDS011;14186;53.822;10.152;2022-10-16T21:42:15;13.10;;;3.08;;
26512;SDS011;14186;53.822;10.152;2022-10-16T21:47:16;11.93;;;2.67;;
26512;SDS011;14186;53.822;10.152;2022-10-16T21:52:16;12.85;;;3.00;;
26512;SDS011;14186;53.822;10.152;2022-10-16T21:57:20;14.85;;;2.85;;
26512;SDS011;14186;53.822;10.152;2022-10-16T22:02:21;16.02;;;3.03;;
26512;SDS011;14186;53.822;10.152;2022-10-16T22:07:21;14.00;;;2.45;;
26512;SDS011;14186;53.822;10.152;2022-10-16T22:12:22;18.23;;;3.20;;
26512;SDS011;14186;53.822;10.152;2022-10-16T22:17:23;15.90;;;2.38;;
26512;SDS011;14186;53.822;10.152;2022-10-16T22:22:23;14.75;;;2.50;;
26512;SDS011;14186;53.822;10.152;2022-10-16T22:27:25;12.77;;;2.75;;
26512;SDS011;14186;53.822;10.152;2022-10-16T22:32:25;11.52;;;2.33;;
26512;SDS011;14186;53.822;10.152;2022-10-16T22:37:25;9.57;;;2.78;;
26512;SDS011;14186;53.822;10.152;2022-10-16T22:42:27;13.27;;;3.00;;
26512;SDS011;14186;53.822;10.152;2022-10-16T22:47:27;12.13;;;2.80;;
26512;SDS011;14186;53.822;10.152;2022-10-16T22:52:29;15.00;;;2.63;;
26512;SDS011;14186;53.822;10.152;2022-10-16T22:57:31;11.30;;;2.60;;
26512;SDS011;14186;53.822;10.152;2022-10-16T23:02:32;13.10;;;2.05;;
26512;SDS011;14186;53.822;10.152;2022-10-16T23:07:33;15.10;;;2.15;;
26512;SDS011;14186;53.822;10.152;2022-10-16T23:12:34;20.00;;;2.65;;
26512;SDS011;14186;53.822;10.152;2022-10-16T23:17:35;14.00;;;2.88;;
26512;SDS011;14186;53.822;10.152;2022-10-16T23:22:35;10.98;;;2.60;;
26512;SDS011;14186;53.822;10.152;2022-10-16T23:27:37;10.55;;;2.03;;
26512;SDS011;14186;53.822;10.152;2022-10-16T23:32:40;19.88;;;1.85;;
26512;SDS011;14186;53.822;10.152;2022-10-16T23:37:40;11.82;;;2.40;;
26512;SDS011;14186;53.822;10.152;2022-10-16T23:42:42;13.07;;;2.05;;
26512;SDS011;14186;53.822;10.152;2022-10-16T23:47:42;11.38;;;2.13;;
26512;SDS011;14186;53.822;10.152;2022-10-16T23:52:45;14.48;;;1.98;;
26512;SDS011;14186;53.822;10.152;2022-10-16T23:57:47;15.40;;;2.58;;
